createdAt,value
2023-01-03T00:01:07.221Z,101578.28
2023-01-03T00:06:39.325Z,101579.13
2023-01-03T00:12:00.478Z,101575.75
2023-01-03T00:17:04.008Z,101586.78
2023-01-03T00:22:05.764Z,101593.53
2023-01-03T00:27:07.330Z,101596.09
2023-01-03T00:32:08.953Z,101607.06
2023-01-03T00:37:10.587Z,101600.22
2023-01-03T00:42:12.803Z,101593.41
2023-01-03T00:47:14.288Z,101593.34
2023-01-03T00:52:15.818Z,101588.25
2023-01-03T00:57:17.290Z,101589.88
2023-01-03T01:02:20.394Z,101601.72
2023-01-03T01:07:21.965Z,101599.19
2023-01-03T01:12:23.416Z,101601.75
2023-01-03T01:17:24.856Z,101604.38
2023-01-03T01:22:26.317Z,101612.97
2023-01-03T01:27:27.755Z,101604.63
2023-01-03T01:32:30.408Z,101626.69
2023-01-03T01:37:31.825Z,101629.28
2023-01-03T01:42:51.917Z,101630.13
2023-01-03T01:48:00.460Z,101631.81
2023-01-03T01:53:09.269Z,101637.75
2023-01-03T01:58:12.632Z,101625.03
2023-01-03T02:03:14.153Z,101623.38
2023-01-03T02:08:16.028Z,101620.03
2023-01-03T02:13:52.297Z,101616.69
2023-01-03T02:19:12.016Z,101616.69
2023-01-03T02:24:38.686Z,101623.47
2023-01-03T02:30:04.359Z,101619.25
2023-01-03T02:35:53.406Z,101626.03
2023-01-03T02:41:04.289Z,101623.53
2023-01-03T02:46:36.492Z,101616.75
2023-01-03T02:51:47.646Z,101624.38
2023-01-03T02:56:56.330Z,101629.44
2023-01-03T03:01:59.566Z,101642.94
2023-01-03T03:07:07.723Z,101629.44
2023-01-03T03:12:28.984Z,101631.13
2023-01-03T03:17:30.899Z,101633.63
2023-01-03T03:23:10.139Z,101630.25
2023-01-03T03:28:34.478Z,101633.59
2023-01-03T03:33:48.842Z,101634.44
2023-01-03T03:38:50.680Z,101624.28
2023-01-03T03:44:16.136Z,101630.16
2023-01-03T03:49:37.953Z,101630.06
2023-01-03T03:54:44.321Z,101638.50
2023-01-03T03:59:52.186Z,101641.03
2023-01-03T04:04:59.116Z,101643.53
2023-01-03T04:10:00.809Z,101651.06
2023-01-03T04:15:03.849Z,101650.19
2023-01-03T04:20:05.787Z,101642.56
2023-01-03T04:25:07.792Z,101651.84
2023-01-03T04:30:11.481Z,101662.06
2023-01-03T04:35:12.967Z,101655.44
2023-01-03T04:40:15.166Z,101664.81
2023-01-03T04:45:17.078Z,101657.22
2023-01-03T04:50:18.659Z,101661.47
2023-01-03T04:55:20.623Z,101653.88
2023-01-03T05:00:22.136Z,101658.13
2023-01-03T05:05:23.589Z,101665.72
2023-01-03T05:10:25.053Z,101654.72
2023-01-03T05:15:28.144Z,101658.06
2023-01-03T05:20:48.286Z,101668.97
2023-01-03T05:25:51.115Z,101679.94
2023-01-03T05:30:53.726Z,101684.16
2023-01-03T05:35:55.329Z,101683.31
2023-01-03T05:40:56.961Z,101685.78
2023-01-03T05:45:58.603Z,101682.31
2023-01-03T05:51:00.141Z,101686.50
2023-01-03T05:56:06.325Z,101699.09
2023-01-03T06:01:11.962Z,101694.78
2023-01-03T06:06:15.097Z,101698.09
2023-01-03T06:11:19.168Z,101701.44
2023-01-03T06:16:39.627Z,101703.09
2023-01-03T06:21:41.648Z,101697.97
2023-01-03T06:26:43.192Z,101715.63
2023-01-03T06:31:44.618Z,101706.31
2023-01-03T06:36:46.060Z,101714.69
2023-01-03T06:41:47.513Z,101716.38
2023-01-03T06:47:07.526Z,101707.94
2023-01-03T06:52:32.841Z,101719.75
2023-01-03T06:57:34.336Z,101717.22
2023-01-03T07:02:35.954Z,101719.78
2023-01-03T07:07:37.630Z,101715.56
2023-01-03T07:12:57.601Z,101717.22
2023-01-03T07:17:59.080Z,101726.41
2023-01-03T07:23:00.486Z,101722.19
2023-01-03T07:28:06.364Z,101729.72
2023-01-03T07:33:11.871Z,101734.00
2023-01-03T07:38:13.732Z,101743.31
2023-01-03T07:43:33.577Z,101745.91
2023-01-03T07:48:35.820Z,101749.38
2023-01-03T07:53:38.271Z,101742.69
2023-01-03T07:58:41.886Z,101757.13
2023-01-03T08:03:43.716Z,101766.38
2023-01-03T08:08:45.742Z,101764.69
2023-01-03T08:13:47.565Z,101768.09
2023-01-03T08:18:49.087Z,101778.31
2023-01-03T08:23:50.632Z,101778.38
2023-01-03T08:28:52.222Z,101786.06
2023-01-03T08:34:01.788Z,101796.22
2023-01-03T08:39:09.395Z,101798.03
2023-01-03T08:44:11.371Z,101810.78
2023-01-03T08:49:13.536Z,101807.47
2023-01-03T08:54:15.000Z,101806.63
2023-01-03T08:59:16.445Z,101802.44
2023-01-03T09:04:18.080Z,101820.91
2023-01-03T09:09:19.722Z,101825.09
2023-01-03T09:14:21.358Z,101827.66
2023-01-03T09:19:23.026Z,101824.31
2023-01-03T09:24:24.470Z,101841.34
2023-01-03T09:29:25.980Z,101832.19
2023-01-03T09:34:27.407Z,101831.50
2023-01-03T09:39:28.823Z,101843.47
2023-01-03T09:44:30.284Z,101846.84
2023-01-03T09:49:32.786Z,101845.13
2023-01-03T09:54:58.144Z,101833.88
2023-01-03T10:00:19.172Z,101835.28
2023-01-03T10:05:42.687Z,101830.00
2023-01-03T10:10:58.186Z,101821.50
2023-01-03T10:16:11.213Z,101819.34
2023-01-03T10:21:50.460Z,101812.69
2023-01-03T10:27:14.007Z,101812.91
2023-01-03T10:32:27.363Z,101813.81
2023-01-03T10:37:29.071Z,101810.63
2023-01-03T10:42:34.543Z,101800.91
2023-01-03T10:47:36.120Z,101805.25
2023-01-03T10:52:40.877Z,101793.81
2023-01-03T10:57:48.373Z,101787.50
2023-01-03T11:02:51.316Z,101785.53
2023-01-03T11:07:59.920Z,101790.88
2023-01-03T11:13:01.377Z,101787.00
2023-01-03T11:18:05.869Z,101780.91
2023-01-03T11:23:49.893Z,101769.66
2023-01-03T11:29:15.255Z,101768.47
2023-01-03T11:34:48.221Z,101769.75
2023-01-03T11:40:21.516Z,101769.75
2023-01-03T11:45:32.162Z,101757.28
2023-01-03T11:50:54.778Z,101761.22
2023-01-03T11:56:22.560Z,101759.00
2023-01-03T12:01:39.092Z,101745.41
2023-01-03T12:07:47.071Z,101748.94
2023-01-03T12:12:58.593Z,101751.88
2023-01-03T12:18:06.648Z,101749.78
2023-01-03T12:23:30.155Z,101740.81
2023-01-03T12:28:48.479Z,101733.38
2023-01-03T12:34:11.912Z,101735.78
2023-01-03T12:39:33.856Z,101731.91
2023-01-03T12:44:40.161Z,101728.00
2023-01-03T12:49:50.096Z,101739.03
2023-01-03T12:55:19.400Z,101720.91
2023-01-03T13:00:57.536Z,101715.22
2023-01-03T13:06:05.279Z,101714.81
2023-01-03T13:11:30.155Z,101722.88
2023-01-03T13:16:34.465Z,101717.91
2023-01-03T13:21:54.204Z,101709.78
2023-01-03T13:27:17.146Z,101696.41
2023-01-03T13:32:21.561Z,101697.47
2023-01-03T13:37:43.511Z,101699.28
2023-01-03T13:42:45.441Z,101694.28
2023-01-03T13:47:52.517Z,101710.63
2023-01-03T13:52:58.634Z,101699.72
2023-01-03T13:58:00.668Z,101693.88
2023-01-03T14:03:24.643Z,101706.81
2023-01-03T14:08:50.014Z,101702.72
2023-01-03T14:14:00.785Z,101707.13
2023-01-03T14:19:22.688Z,101708.91
2023-01-03T14:24:27.759Z,101714.94
2023-01-03T14:29:29.354Z,101704.78
2023-01-03T14:34:34.408Z,101704.06
2023-01-03T14:44:36.325Z,101712.81
2023-01-03T14:49:43.735Z,101720.50
2023-01-03T14:54:49.125Z,101712.81
2023-01-03T14:59:52.520Z,101724.72
2023-01-03T15:04:57.549Z,101712.97
2023-01-03T15:10:17.361Z,101706.44
2023-01-03T15:15:23.780Z,101716.84
2023-01-03T15:20:37.607Z,101719.56
2023-01-03T15:25:41.524Z,101727.31
2023-01-03T15:30:49.965Z,101730.03
2023-01-03T15:35:54.306Z,101732.66
2023-01-03T15:40:56.096Z,101742.09
2023-01-03T15:46:11.205Z,101738.81
2023-01-03T15:51:12.777Z,101741.44
2023-01-03T15:56:19.327Z,101753.38
2023-01-03T16:01:22.474Z,101750.91
2023-01-03T16:06:24.005Z,101747.59
2023-01-03T16:11:33.649Z,101752.75
2023-01-03T16:16:38.216Z,101756.16
2023-01-03T16:21:39.684Z,101756.22
2023-01-03T16:26:41.419Z,101755.38
2023-01-03T16:31:44.986Z,101752.84
2023-01-03T16:36:47.674Z,101754.59
2023-01-03T16:42:08.673Z,101767.34
2023-01-03T16:47:15.336Z,101775.78
2023-01-03T16:52:25.235Z,101782.53
2023-01-03T16:57:28.475Z,101774.84
2023-01-03T17:02:30.136Z,101777.38
2023-01-03T17:07:31.766Z,101789.19
2023-01-03T17:12:33.843Z,101782.38
2023-01-03T17:17:35.249Z,101781.50
2023-01-03T17:22:36.726Z,101773.78
2023-01-03T17:27:38.202Z,101782.97
2023-01-03T17:32:39.623Z,101782.91
2023-01-03T17:38:13.956Z,101787.94
2023-01-03T17:43:03.078Z,101787.88
2023-01-03T17:48:23.312Z,101784.44
2023-01-03T17:53:25.666Z,101789.44
2023-01-03T17:58:35.969Z,101799.47
2023-01-03T18:03:38.337Z,101806.19
2023-01-03T18:08:40.863Z,101807.75
2023-01-03T18:13:42.569Z,101816.91
2023-01-03T18:18:44.583Z,101831.97
2023-01-03T18:23:46.527Z,101829.59
2023-01-03T18:28:48.077Z,101826.38
2023-01-03T18:33:49.556Z,101832.31
2023-01-03T18:38:52.534Z,101838.50
2023-01-03T18:43:54.016Z,101836.13
2023-01-03T18:48:55.633Z,101836.22
2023-01-03T18:53:58.846Z,101839.72
2023-01-03T18:59:17.323Z,101835.56
2023-01-03T19:04:18.803Z,101841.53
2023-01-03T19:09:22.850Z,101833.97
2023-01-03T19:14:24.362Z,101832.31
2023-01-03T19:19:25.813Z,101832.31
2023-01-03T19:24:39.362Z,101830.59
2023-01-03T19:29:41.610Z,101819.56
2023-01-03T19:34:43.183Z,101833.13
2023-01-03T19:39:44.626Z,101831.44
2023-01-03T19:44:47.489Z,101832.28
2023-01-03T19:49:49.056Z,101823.75
2023-01-03T19:54:50.526Z,101827.91
2023-01-03T19:59:56.678Z,101815.25
2023-01-03T20:04:58.369Z,101826.97
2023-01-03T20:09:59.880Z,101824.41
2023-01-03T20:15:06.762Z,101818.47
2023-01-03T20:20:10.211Z,101815.06
2023-01-03T20:25:27.134Z,101812.53
2023-01-03T20:30:31.176Z,101813.44
2023-01-03T20:40:54.896Z,101798.16
2023-01-03T20:45:58.317Z,101793.88
2023-01-03T20:50:59.880Z,101795.50
2023-01-03T20:56:01.288Z,101788.66
2023-01-03T21:01:05.166Z,101782.72
2023-01-03T21:06:18.614Z,101777.47
2023-01-03T21:11:30.744Z,101772.28
2023-01-03T21:16:36.535Z,101759.56
2023-01-03T21:21:38.589Z,101759.50
2023-01-03T21:26:40.091Z,101758.53
2023-01-03T21:31:43.044Z,101761.78
2023-01-03T21:36:44.662Z,101753.41
2023-01-03T21:42:04.493Z,101748.38
2023-01-03T21:47:05.971Z,101747.44
2023-01-03T21:52:07.425Z,101747.38
2023-01-03T21:57:08.951Z,101752.34
2023-01-03T22:02:31.193Z,101754.84
2023-01-03T22:07:32.747Z,101751.47
2023-01-03T22:12:34.396Z,101746.47
2023-01-03T22:17:36.540Z,101750.75
2023-01-03T22:22:39.789Z,101749.88
2023-01-03T22:27:42.344Z,101738.00
2023-01-03T22:32:44.572Z,101699.94
2023-01-03T22:37:46.113Z,101731.13
2023-01-03T22:42:47.617Z,101716.81
2023-01-03T22:47:49.104Z,101718.47
2023-01-03T22:52:50.841Z,101716.66
2023-01-03T22:57:52.295Z,101715.69
2023-01-03T23:02:53.826Z,101716.41
2023-01-03T23:07:55.316Z,101720.59
2023-01-03T23:12:59.779Z,101731.56
2023-01-03T23:18:01.202Z,101729.84
2023-01-03T23:23:02.936Z,101714.59
2023-01-03T23:28:04.742Z,101703.50
2023-01-03T23:33:06.199Z,101690.91
2023-01-03T23:38:07.650Z,101683.41
2023-01-03T23:43:10.561Z,101674.13
2023-01-03T23:48:12.051Z,101676.69
2023-01-03T23:53:13.602Z,101675.81
2023-01-03T23:58:15.079Z,101675.75
